createdAt,value
2017-07-11T00:00:05.383Z,0
2017-07-11T00:00:30.952Z,0
2017-07-11T00:00:56.535Z,0
2017-07-11T00:01:22.267Z,0
2017-07-11T00:01:47.811Z,0
2017-07-11T00:02:13.383Z,0
2017-07-11T00:02:38.945Z,0
2017-07-11T00:03:04.503Z,0
2017-07-11T00:03:30.083Z,0
2017-07-11T00:03:55.667Z,0
2017-07-11T00:04:21.229Z,0
2017-07-11T00:04:46.802Z,0
2017-07-11T00:05:12.384Z,0
2017-07-11T00:05:37.940Z,0
2017-07-11T00:06:03.500Z,0
2017-07-11T00:06:29.103Z,0
2017-07-11T00:06:54.677Z,0
2017-07-11T00:07:20.284Z,0
2017-07-11T00:07:45.866Z,0
2017-07-11T00:08:11.433Z,0
2017-07-11T00:08:37.019Z,0
2017-07-11T00:09:02.580Z,0
2017-07-11T00:09:28.128Z,0
2017-07-11T00:09:53.758Z,0
2017-07-11T00:10:19.375Z,0
2017-07-11T00:10:44.945Z,0
2017-07-11T00:11:10.526Z,0
2017-07-11T00:11:36.110Z,0
2017-07-11T00:12:01.687Z,0
2017-07-11T00:12:27.252Z,0
2017-07-11T00:12:52.840Z,0
2017-07-11T00:13:18.403Z,0
2017-07-11T00:13:43.983Z,0
2017-07-11T00:14:09.599Z,0
2017-07-11T00:14:35.145Z,0
2017-07-11T00:15:00.706Z,0
2017-07-11T00:15:26.289Z,0
2017-07-11T00:15:51.940Z,0
2017-07-11T00:16:17.524Z,0
2017-07-11T00:16:43.109Z,0
2017-07-11T00:17:08.662Z,0
2017-07-11T00:17:34.220Z,0
2017-07-11T00:17:59.781Z,0
2017-07-11T00:18:25.413Z,0
2017-07-11T00:18:50.973Z,0
2017-07-11T00:19:16.535Z,0
2017-07-11T00:19:42.126Z,0
2017-07-11T00:20:07.697Z,0
2017-07-11T00:20:33.261Z,0
2017-07-11T00:20:58.877Z,0
2017-07-11T00:21:24.449Z,0
2017-07-11T00:21:49.997Z,0
2017-07-11T00:22:15.556Z,0
2017-07-11T00:22:41.145Z,0
2017-07-11T00:23:06.715Z,0
2017-07-11T00:23:32.286Z,0
2017-07-11T00:23:57.846Z,0
2017-07-11T00:24:23.429Z,0
2017-07-11T00:24:49.023Z,0
2017-07-11T00:25:14.585Z,0
2017-07-11T00:25:40.143Z,0
2017-07-11T00:26:05.765Z,0
2017-07-11T00:26:31.419Z,0
2017-07-11T00:26:56.996Z,0
2017-07-11T00:27:22.591Z,0
2017-07-11T00:27:48.148Z,0
2017-07-11T00:28:13.695Z,0
2017-07-11T00:28:39.263Z,0
2017-07-11T00:29:04.819Z,0
2017-07-11T00:29:30.368Z,0
2017-07-11T00:29:56.002Z,0
2017-07-11T00:30:21.577Z,0
2017-07-11T00:30:47.157Z,0
2017-07-11T00:31:12.712Z,0
2017-07-11T00:31:38.346Z,0
2017-07-11T00:32:03.909Z,0
2017-07-11T00:32:29.453Z,0
2017-07-11T00:32:55.040Z,0
2017-07-11T00:33:20.605Z,0
2017-07-11T00:33:46.144Z,0
2017-07-11T00:34:11.767Z,0
2017-07-11T00:34:37.316Z,0
2017-07-11T00:35:02.888Z,0
2017-07-11T00:35:28.564Z,0
2017-07-11T00:35:54.146Z,0
2017-07-11T00:36:19.706Z,0
2017-07-11T00:36:45.258Z,0
2017-07-11T00:37:10.827Z,0
2017-07-11T00:37:36.422Z,0
2017-07-11T00:38:01.995Z,0
2017-07-11T00:38:27.553Z,0
2017-07-11T00:38:53.112Z,0
2017-07-11T00:39:18.746Z,0
2017-07-11T00:39:44.284Z,0
2017-07-11T00:40:09.859Z,0
2017-07-11T00:40:35.465Z,0
2017-07-11T00:41:01.023Z,0
2017-07-11T00:41:26.589Z,0
2017-07-11T00:41:52.167Z,0
2017-07-11T00:42:17.749Z,0
2017-07-11T00:42:43.308Z,0
2017-07-11T00:43:08.919Z,0
2017-07-11T00:43:34.483Z,0
2017-07-11T00:44:00.120Z,0
2017-07-11T00:44:25.665Z,0
2017-07-11T00:44:51.230Z,0
2017-07-11T00:45:16.787Z,0
2017-07-11T00:45:42.343Z,0
2017-07-11T00:46:07.959Z,0
2017-07-11T00:46:33.525Z,0
2017-07-11T00:46:59.104Z,0
2017-07-11T00:47:24.654Z,0
2017-07-11T00:47:50.213Z,0
2017-07-11T00:48:15.747Z,0
2017-07-11T00:48:41.311Z,0
2017-07-11T00:49:06.880Z,0
2017-07-11T00:49:32.441Z,0
2017-07-11T00:49:58.018Z,0
2017-07-11T00:50:23.572Z,0
2017-07-11T00:50:49.148Z,0
2017-07-11T00:51:14.874Z,0
2017-07-11T00:51:40.427Z,0
2017-07-11T00:52:05.982Z,0
2017-07-11T00:52:31.623Z,0
2017-07-11T00:52:57.167Z,0
2017-07-11T00:53:22.729Z,0
2017-07-11T00:53:48.295Z,0
2017-07-11T00:54:13.847Z,0
2017-07-11T00:54:39.400Z,0
2017-07-11T00:55:05.077Z,0
2017-07-11T00:55:30.632Z,0
2017-07-11T00:56:44.906Z,0
2017-07-11T00:57:53.652Z,0
2017-07-11T00:58:19.212Z,0
2017-07-11T00:58:44.762Z,0
2017-07-11T00:59:10.303Z,0
2017-07-11T00:59:35.880Z,0
2017-07-11T01:00:01.461Z,0
2017-07-11T01:00:27.014Z,0
2017-07-11T01:00:52.687Z,0
2017-07-11T01:01:18.397Z,0
2017-07-11T01:01:43.973Z,0
2017-07-11T01:02:09.532Z,0
2017-07-11T01:02:35.097Z,0
2017-07-11T01:03:00.794Z,0
2017-07-11T01:03:26.380Z,0
2017-07-11T01:03:51.930Z,0
2017-07-11T01:04:17.555Z,0
2017-07-11T01:04:43.103Z,0
2017-07-11T01:05:08.668Z,0
2017-07-11T01:05:34.258Z,0
2017-07-11T01:06:38.275Z,0
2017-07-11T01:07:03.920Z,0
2017-07-11T01:07:29.502Z,0
2017-07-11T01:07:55.047Z,0
2017-07-11T01:08:20.659Z,0
2017-07-11T01:08:46.232Z,0
2017-07-11T01:09:11.782Z,0
2017-07-11T01:09:37.385Z,0
2017-07-11T01:10:02.936Z,0
2017-07-11T01:10:28.508Z,0
2017-07-11T01:10:54.064Z,0
2017-07-11T01:11:19.679Z,0
2017-07-11T01:11:45.232Z,0
2017-07-11T01:12:10.809Z,0
2017-07-11T01:12:36.540Z,0
2017-07-11T01:13:02.078Z,0
2017-07-11T01:13:27.624Z,0
2017-07-11T01:13:53.191Z,0
2017-07-11T01:14:18.752Z,0
2017-07-11T01:14:44.308Z,0
2017-07-11T01:15:48.269Z,0
2017-07-11T01:16:15.621Z,0
2017-07-11T01:18:21.441Z,0
2017-07-11T01:18:47.013Z,0
2017-07-11T01:19:12.575Z,0
2017-07-11T01:19:38.145Z,0
2017-07-11T01:20:03.717Z,0
2017-07-11T01:20:29.263Z,0
2017-07-11T01:20:54.838Z,0
2017-07-11T01:21:20.416Z,0
2017-07-11T01:21:45.967Z,0
2017-07-11T01:22:11.531Z,0
2017-07-11T01:22:37.084Z,0
2017-07-11T01:23:02.656Z,0
2017-07-11T01:23:28.219Z,0
2017-07-11T01:23:53.767Z,0
2017-07-11T01:24:19.329Z,0
2017-07-11T01:24:44.886Z,0
2017-07-11T01:25:10.434Z,0
2017-07-11T01:25:36.000Z,0
2017-07-11T01:26:01.617Z,0
2017-07-11T01:26:27.164Z,0
2017-07-11T01:26:52.718Z,0
2017-07-11T01:27:18.278Z,0
2017-07-11T01:27:43.826Z,0
2017-07-11T01:28:09.421Z,0
2017-07-11T01:28:34.987Z,0
2017-07-11T01:29:00.538Z,0
2017-07-11T01:29:26.180Z,0
2017-07-11T01:29:51.838Z,0
2017-07-11T01:30:17.402Z,0
2017-07-11T01:30:42.977Z,0
2017-07-11T01:31:08.546Z,0
2017-07-11T01:31:34.104Z,0
2017-07-11T01:31:59.667Z,0
2017-07-11T01:32:25.293Z,0
2017-07-11T01:32:50.856Z,0
2017-07-11T01:33:16.426Z,0
2017-07-11T01:33:42.017Z,0
2017-07-11T01:34:07.593Z,0
2017-07-11T01:34:33.145Z,0
2017-07-11T01:34:58.731Z,0
2017-07-11T01:35:24.299Z,0
2017-07-11T01:35:49.856Z,0
2017-07-11T01:36:15.479Z,0
2017-07-11T01:36:41.093Z,0
2017-07-11T01:37:06.646Z,0
2017-07-11T01:37:32.228Z,0
2017-07-11T01:37:57.794Z,0
2017-07-11T01:38:23.361Z,0
2017-07-11T01:38:48.916Z,0
2017-07-11T01:39:14.520Z,0
2017-07-11T01:39:40.084Z,0
2017-07-11T01:40:05.635Z,0
2017-07-11T01:40:31.196Z,0
2017-07-11T01:40:56.759Z,0
2017-07-11T01:41:22.302Z,0
2017-07-11T01:41:47.873Z,0
2017-07-11T01:42:13.437Z,0
2017-07-11T01:42:39.093Z,0
2017-07-11T01:43:04.676Z,0
2017-07-11T01:43:30.223Z,0
2017-07-11T01:43:55.772Z,0
2017-07-11T01:45:04.677Z,0
2017-07-11T01:45:30.244Z,0
2017-07-11T01:45:55.814Z,0
2017-07-11T01:46:21.369Z,0
2017-07-11T01:46:47.059Z,0
2017-07-11T01:47:12.611Z,0
2017-07-11T01:47:38.179Z,0
2017-07-11T01:48:03.746Z,0
2017-07-11T01:48:29.295Z,0
2017-07-11T01:48:54.842Z,0
2017-07-11T01:49:20.405Z,0
2017-07-11T01:49:45.979Z,0
2017-07-11T01:50:11.662Z,0
2017-07-11T01:50:37.212Z,0
2017-07-11T01:51:02.766Z,0
2017-07-11T01:51:28.346Z,0
2017-07-11T01:51:53.890Z,0
2017-07-11T01:52:19.463Z,0
2017-07-11T01:52:45.021Z,0
2017-07-11T01:53:10.570Z,0
2017-07-11T01:53:36.103Z,0
2017-07-11T01:54:01.771Z,0
2017-07-11T01:54:27.344Z,0
2017-07-11T01:54:52.915Z,0
2017-07-11T01:55:18.474Z,0
2017-07-11T01:55:44.029Z,0
2017-07-11T01:56:09.616Z,0
2017-07-11T01:56:35.223Z,0
2017-07-11T01:57:00.850Z,0
2017-07-11T01:57:26.403Z,0
2017-07-11T01:57:51.969Z,0
2017-07-11T01:58:17.554Z,0
2017-07-11T01:58:43.135Z,0
2017-07-11T01:59:08.700Z,0
2017-07-11T01:59:34.302Z,0
2017-07-11T01:59:59.884Z,0
2017-07-11T02:00:25.443Z,0
2017-07-11T02:00:51.009Z,0
2017-07-11T02:01:16.574Z,0
2017-07-11T02:01:42.173Z,0
2017-07-11T02:02:07.832Z,0
2017-07-11T02:02:33.403Z,0
2017-07-11T02:02:58.971Z,0
2017-07-11T02:03:24.540Z,0
2017-07-11T02:03:50.108Z,0
2017-07-11T02:04:15.667Z,0
2017-07-11T02:04:41.319Z,0
2017-07-11T02:05:06.895Z,0
2017-07-11T02:05:32.478Z,0
2017-07-11T02:05:58.046Z,0
2017-07-11T02:06:23.666Z,0
2017-07-11T02:06:49.216Z,0
2017-07-11T02:07:14.769Z,0
2017-07-11T02:07:40.339Z,0
2017-07-11T02:08:05.928Z,0
2017-07-11T02:08:31.484Z,0
2017-07-11T02:08:57.129Z,0
2017-07-11T02:09:22.693Z,0
2017-07-11T02:09:48.297Z,0
2017-07-11T02:10:13.889Z,0
2017-07-11T02:10:39.452Z,0
2017-07-11T02:11:05.016Z,0
2017-07-11T02:11:30.574Z,0
2017-07-11T02:11:56.128Z,0
2017-07-11T02:12:21.700Z,0
2017-07-11T02:12:47.333Z,0
2017-07-11T02:13:12.894Z,0
2017-07-11T02:13:38.475Z,0
2017-07-11T02:14:04.036Z,0
2017-07-11T02:14:29.584Z,0
2017-07-11T02:14:55.156Z,0
2017-07-11T02:15:20.769Z,0
2017-07-11T02:15:46.337Z,0
2017-07-11T02:16:11.909Z,0
2017-07-11T02:16:37.497Z,0
2017-07-11T02:17:03.067Z,0
2017-07-11T02:17:28.613Z,0
2017-07-11T02:17:54.224Z,0
2017-07-11T02:18:19.771Z,0
2017-07-11T02:18:45.381Z,0
2017-07-11T02:19:10.942Z,0
2017-07-11T02:19:36.532Z,0
2017-07-11T02:20:02.091Z,0
2017-07-11T02:20:27.675Z,0
2017-07-11T02:20:53.234Z,0
2017-07-11T02:21:18.791Z,0
2017-07-11T02:21:44.364Z,0
2017-07-11T02:22:09.936Z,0
2017-07-11T02:22:35.498Z,0
2017-07-11T02:23:01.047Z,0
2017-07-11T02:23:26.603Z,0
2017-07-11T02:23:52.149Z,0
2017-07-11T02:24:17.728Z,0
2017-07-11T02:24:43.302Z,0
2017-07-11T02:25:08.901Z,0
2017-07-11T02:25:34.457Z,0
2017-07-11T02:26:00.176Z,0
2017-07-11T02:26:25.750Z,0
2017-07-11T02:26:51.326Z,0
2017-07-11T02:27:16.895Z,0
2017-07-11T02:27:42.501Z,0
2017-07-11T02:28:08.018Z,0
2017-07-11T02:28:33.604Z,0
2017-07-11T02:28:59.185Z,0
2017-07-11T02:29:24.748Z,0
2017-07-11T02:29:50.316Z,0
2017-07-11T02:30:15.886Z,0
2017-07-11T02:30:41.454Z,0
2017-07-11T02:31:07.121Z,0
2017-07-11T02:31:32.668Z,0
2017-07-11T02:31:58.225Z,0
2017-07-11T02:32:23.803Z,0
2017-07-11T02:32:49.352Z,0
2017-07-11T02:33:14.914Z,0
2017-07-11T02:33:40.476Z,0
2017-07-11T02:34:06.047Z,0
2017-07-11T02:34:31.615Z,0
2017-07-11T02:34:57.161Z,0
2017-07-11T02:35:22.723Z,0
2017-07-11T02:35:48.337Z,0
2017-07-11T02:36:13.913Z,0
2017-07-11T02:36:39.485Z,0
2017-07-11T02:37:05.036Z,0
2017-07-11T02:37:30.666Z,0
2017-07-11T02:37:56.230Z,0
2017-07-11T02:38:21.785Z,0
2017-07-11T02:38:47.348Z,0
2017-07-11T02:39:12.918Z,0
2017-07-11T02:39:38.495Z,0
2017-07-11T02:40:04.195Z,0
2017-07-11T02:40:29.774Z,0
2017-07-11T02:40:55.323Z,0
2017-07-11T02:41:20.901Z,0
2017-07-11T02:41:46.491Z,0
2017-07-11T02:42:12.052Z,0
2017-07-11T02:42:37.609Z,0
2017-07-11T02:43:03.159Z,0
2017-07-11T02:43:28.719Z,0
2017-07-11T02:43:54.302Z,0
2017-07-11T02:44:19.864Z,0
2017-07-11T02:44:45.426Z,0
2017-07-11T02:45:11.018Z,0
2017-07-11T02:45:36.664Z,0
2017-07-11T02:46:02.221Z,0
2017-07-11T02:46:27.781Z,0
2017-07-11T02:46:53.466Z,0
2017-07-11T02:47:19.023Z,0
2017-07-11T02:47:44.624Z,0
2017-07-11T02:48:10.195Z,0
2017-07-11T02:48:35.734Z,0
2017-07-11T02:49:01.316Z,0
2017-07-11T02:49:26.870Z,0
2017-07-11T02:49:52.412Z,0
2017-07-11T02:50:18.002Z,0
2017-07-11T02:50:43.576Z,0
2017-07-11T02:51:09.149Z,0
2017-07-11T02:51:34.724Z,0
2017-07-11T02:52:00.289Z,0
2017-07-11T02:52:25.853Z,0
2017-07-11T02:52:51.405Z,0
2017-07-11T02:53:17.113Z,0
2017-07-11T02:53:42.669Z,0
2017-07-11T02:54:08.236Z,0
2017-07-11T02:54:33.812Z,0
2017-07-11T02:54:59.414Z,0
2017-07-11T02:55:24.978Z,0
2017-07-11T02:55:50.547Z,0
2017-07-11T02:56:16.160Z,0
2017-07-11T02:56:41.730Z,0
2017-07-11T02:57:07.265Z,0
2017-07-11T02:57:32.830Z,0
2017-07-11T02:57:58.407Z,0
2017-07-11T02:58:24.053Z,0
2017-07-11T02:58:49.627Z,0
2017-07-11T02:59:15.194Z,0
2017-07-11T02:59:40.757Z,0
2017-07-11T03:00:06.357Z,0
2017-07-11T03:00:31.917Z,0
2017-07-11T03:00:57.507Z,0
2017-07-11T03:01:23.080Z,0
2017-07-11T03:01:48.644Z,0
2017-07-11T03:02:14.196Z,0
2017-07-11T03:02:39.789Z,0
2017-07-11T03:03:05.345Z,0
2017-07-11T03:03:30.915Z,0
2017-07-11T03:03:56.610Z,0
2017-07-11T03:04:22.170Z,0
2017-07-11T03:04:47.732Z,0
2017-07-11T03:05:13.321Z,0
2017-07-11T03:05:38.888Z,0
2017-07-11T03:06:04.439Z,0
2017-07-11T03:06:29.995Z,0
2017-07-11T03:06:55.559Z,0
2017-07-11T03:07:21.122Z,0
2017-07-11T03:07:46.697Z,0
2017-07-11T03:08:12.267Z,0
2017-07-11T03:08:37.829Z,0
2017-07-11T03:09:03.386Z,0
2017-07-11T03:09:28.952Z,0
2017-07-11T03:09:54.507Z,0
2017-07-11T03:10:20.142Z,0
2017-07-11T03:10:45.715Z,0
2017-07-11T03:11:11.284Z,0
2017-07-11T03:11:36.866Z,0
2017-07-11T03:12:02.427Z,0
2017-07-11T03:12:28.002Z,0
2017-07-11T03:12:53.594Z,0
2017-07-11T03:13:19.164Z,0
2017-07-11T03:13:44.728Z,0
2017-07-11T03:14:10.392Z,0
2017-07-11T03:14:35.969Z,0
2017-07-11T03:15:01.543Z,0
2017-07-11T03:15:27.236Z,0
2017-07-11T03:15:52.766Z,0
2017-07-11T03:16:18.322Z,0
2017-07-11T03:16:43.881Z,0
2017-07-11T03:17:09.523Z,0
2017-07-11T03:17:35.095Z,0
2017-07-11T03:18:00.646Z,0
2017-07-11T03:18:26.213Z,0
2017-07-11T03:18:51.781Z,0
2017-07-11T03:19:17.333Z,0
2017-07-11T03:19:42.946Z,0
2017-07-11T03:20:08.493Z,0
2017-07-11T03:20:34.092Z,0
2017-07-11T03:20:59.656Z,0
2017-07-11T03:21:25.239Z,0
2017-07-11T03:21:50.806Z,0
2017-07-11T03:22:16.357Z,0
2017-07-11T03:22:41.945Z,0
2017-07-11T03:23:07.528Z,0
2017-07-11T03:23:33.090Z,0
2017-07-11T03:23:58.664Z,0
2017-07-11T03:24:24.251Z,0
2017-07-11T03:24:49.805Z,0
2017-07-11T03:25:15.388Z,0
2017-07-11T03:25:40.944Z,0
2017-07-11T03:26:06.627Z,0
2017-07-11T03:26:32.187Z,0
2017-07-11T03:26:57.758Z,0
2017-07-11T03:27:23.324Z,0
2017-07-11T03:27:49.032Z,0
2017-07-11T03:28:14.624Z,0
2017-07-11T03:28:40.177Z,0
2017-07-11T03:29:05.722Z,0
2017-07-11T03:29:31.286Z,0
2017-07-11T03:29:56.866Z,0
2017-07-11T03:30:22.433Z,0
2017-07-11T03:30:48.000Z,0
2017-07-11T03:31:13.576Z,0
2017-07-11T03:31:39.143Z,0
2017-07-11T03:32:04.706Z,0
2017-07-11T03:32:30.260Z,0
2017-07-11T03:32:55.819Z,0
2017-07-11T03:33:21.401Z,0
2017-07-11T03:33:46.997Z,0
2017-07-11T03:34:12.575Z,0
2017-07-11T03:34:38.145Z,0
2017-07-11T03:35:03.699Z,0
2017-07-11T03:35:29.323Z,0
2017-07-11T03:35:54.899Z,0
2017-07-11T03:36:20.461Z,0
2017-07-11T03:36:46.069Z,0
2017-07-11T03:37:11.633Z,0
2017-07-11T03:37:37.200Z,0
2017-07-11T03:38:02.757Z,0
2017-07-11T03:38:28.346Z,0
2017-07-11T03:38:53.924Z,0
2017-07-11T03:39:19.566Z,0
2017-07-11T03:39:45.116Z,0
2017-07-11T03:40:10.675Z,0
2017-07-11T03:40:36.324Z,0
2017-07-11T03:41:01.898Z,0
2017-07-11T03:41:27.448Z,0
2017-07-11T03:41:53.008Z,0
2017-07-11T03:42:18.563Z,0
2017-07-11T03:42:44.117Z,0
2017-07-11T03:43:09.682Z,0
2017-07-11T03:43:35.237Z,0
2017-07-11T03:44:00.805Z,0
2017-07-11T03:44:26.399Z,0
2017-07-11T03:44:51.978Z,0
2017-07-11T03:45:17.529Z,0
2017-07-11T03:45:43.086Z,0
2017-07-11T03:46:08.642Z,0
2017-07-11T03:46:34.236Z,0
2017-07-11T03:46:59.862Z,0
2017-07-11T03:47:25.467Z,0
2017-07-11T03:47:51.031Z,0
2017-07-11T03:48:16.602Z,0
2017-07-11T03:48:42.177Z,0
2017-07-11T03:49:07.728Z,0
2017-07-11T03:49:33.300Z,0
2017-07-11T03:49:59.000Z,0
2017-07-11T03:50:24.567Z,0
2017-07-11T03:50:50.171Z,0
2017-07-11T03:51:15.740Z,0
2017-07-11T03:51:41.304Z,0
2017-07-11T03:52:06.857Z,0
2017-07-11T03:52:32.418Z,0
2017-07-11T03:52:57.983Z,0
2017-07-11T03:53:23.563Z,0
2017-07-11T03:53:49.245Z,0
2017-07-11T03:54:14.805Z,0
2017-07-11T03:54:40.373Z,0
2017-07-11T03:55:05.943Z,0
2017-07-11T03:55:31.516Z,0
2017-07-11T03:55:57.075Z,0
2017-07-11T03:56:22.680Z,0
2017-07-11T03:56:48.237Z,0
2017-07-11T03:57:13.796Z,0
2017-07-11T03:57:39.386Z,0
2017-07-11T03:58:05.004Z,0
2017-07-11T03:58:30.564Z,0
2017-07-11T03:58:56.150Z,0
2017-07-11T03:59:21.797Z,0
2017-07-11T03:59:47.377Z,0
2017-07-11T04:00:12.916Z,0
2017-07-11T04:00:38.461Z,0
2017-07-11T04:01:04.046Z,0
2017-07-11T04:02:28.607Z,0
2017-07-11T04:02:54.220Z,0
2017-07-11T04:03:19.821Z,0
2017-07-11T04:03:45.366Z,0
2017-07-11T04:04:10.952Z,0
2017-07-11T04:04:36.502Z,0
2017-07-11T04:05:02.113Z,0
2017-07-11T04:05:27.683Z,0
2017-07-11T04:05:53.277Z,0
2017-07-11T04:06:18.844Z,0
2017-07-11T04:06:44.392Z,0
2017-07-11T04:07:09.941Z,0
2017-07-11T04:07:35.601Z,0
2017-07-11T04:08:01.162Z,0
2017-07-11T04:08:26.729Z,0
2017-07-11T04:08:52.288Z,0
2017-07-11T04:09:17.846Z,0
2017-07-11T04:09:43.450Z,0
2017-07-11T04:10:09.010Z,0
2017-07-11T04:10:34.570Z,0
2017-07-11T04:11:00.191Z,0
2017-07-11T04:11:25.820Z,0
2017-07-11T04:11:51.375Z,0
2017-07-11T04:12:16.921Z,0
2017-07-11T04:12:42.486Z,0
2017-07-11T04:13:08.043Z,0
2017-07-11T04:13:33.654Z,0
2017-07-11T04:13:59.215Z,0
2017-07-11T04:14:24.775Z,0
2017-07-11T04:14:50.339Z,0
2017-07-11T04:15:15.993Z,0
2017-07-11T04:15:41.560Z,0
2017-07-11T04:16:07.105Z,0
2017-07-11T04:16:32.652Z,0
2017-07-11T04:16:58.213Z,0
2017-07-11T04:17:23.773Z,0
2017-07-11T04:17:49.440Z,0
2017-07-11T04:18:15.016Z,4
2017-07-11T04:18:40.576Z,4
2017-07-11T04:19:06.128Z,4
2017-07-11T04:19:31.680Z,4
2017-07-11T04:19:57.246Z,4
2017-07-11T04:20:22.807Z,4
2017-07-11T04:20:48.466Z,4
2017-07-11T04:21:14.020Z,0
2017-07-11T04:21:39.627Z,0
2017-07-11T04:22:05.199Z,0
2017-07-11T04:22:30.743Z,0
2017-07-11T04:22:56.326Z,0
2017-07-11T04:23:21.892Z,0
2017-07-11T04:23:47.455Z,0
2017-07-11T04:24:13.109Z,0
2017-07-11T04:24:38.664Z,0
2017-07-11T04:25:04.226Z,0
2017-07-11T04:25:29.774Z,0
2017-07-11T04:25:55.302Z,0
2017-07-11T04:26:20.896Z,0
2017-07-11T04:26:46.464Z,4
2017-07-11T04:27:12.047Z,4
2017-07-11T04:27:37.596Z,4
2017-07-11T04:28:03.165Z,4
2017-07-11T04:28:28.795Z,4
2017-07-11T04:28:54.325Z,0
2017-07-11T04:29:19.897Z,0
2017-07-11T04:29:45.454Z,0
2017-07-11T04:30:11.062Z,0
2017-07-11T04:30:36.578Z,0
2017-07-11T04:31:02.139Z,0
2017-07-11T04:31:27.685Z,0
2017-07-11T04:31:53.268Z,4
2017-07-11T04:32:18.831Z,4
2017-07-11T04:32:44.418Z,4
2017-07-11T04:33:09.984Z,4
2017-07-11T04:33:35.553Z,4
2017-07-11T04:34:01.118Z,0
2017-07-11T04:34:26.745Z,0
2017-07-11T04:34:52.303Z,0
2017-07-11T04:35:17.862Z,0
2017-07-11T04:35:43.582Z,0
2017-07-11T04:36:09.182Z,0
2017-07-11T04:36:34.753Z,4
2017-07-11T04:37:00.327Z,4
2017-07-11T04:37:25.885Z,4
2017-07-11T04:37:51.452Z,4
2017-07-11T04:38:16.996Z,4
2017-07-11T04:38:42.581Z,4
2017-07-11T04:39:08.177Z,4
2017-07-11T04:39:33.737Z,4
2017-07-11T04:39:59.314Z,4
2017-07-11T04:40:24.898Z,4
2017-07-11T04:40:50.457Z,4
2017-07-11T04:41:16.094Z,4
2017-07-11T04:41:41.657Z,4
2017-07-11T04:42:07.248Z,4
2017-07-11T04:42:32.822Z,8
2017-07-11T04:42:58.376Z,8
2017-07-11T04:43:23.945Z,8
2017-07-11T04:43:49.490Z,4
2017-07-11T04:44:15.066Z,4
2017-07-11T04:44:40.670Z,4
2017-07-11T04:45:06.352Z,4
2017-07-11T04:45:31.907Z,8
2017-07-11T04:45:57.460Z,8
2017-07-11T04:46:23.133Z,8
2017-07-11T04:46:48.717Z,8
2017-07-11T04:47:14.286Z,8
2017-07-11T04:47:39.876Z,8
2017-07-11T04:48:05.477Z,8
2017-07-11T04:48:31.024Z,8
2017-07-11T04:48:56.581Z,8
2017-07-11T04:49:22.215Z,8
2017-07-11T04:49:47.776Z,8
2017-07-11T04:50:13.331Z,8
2017-07-11T04:50:38.889Z,4
2017-07-11T04:51:04.568Z,8
2017-07-11T04:51:30.186Z,8
2017-07-11T04:51:55.703Z,4
2017-07-11T04:52:21.267Z,4
2017-07-11T04:52:46.828Z,8
2017-07-11T04:53:12.375Z,8
2017-07-11T04:53:37.949Z,4
2017-07-11T04:54:03.496Z,4
2017-07-11T04:54:29.043Z,4
2017-07-11T04:54:54.609Z,4
2017-07-11T04:55:20.171Z,4
2017-07-11T04:55:45.756Z,4
2017-07-11T04:56:11.335Z,4
2017-07-11T04:56:36.909Z,4
2017-07-11T04:57:02.527Z,4
2017-07-11T04:57:28.032Z,4
2017-07-11T04:57:53.596Z,4
2017-07-11T04:58:19.157Z,4
2017-07-11T04:58:44.712Z,4
2017-07-11T04:59:10.268Z,4
2017-07-11T04:59:35.904Z,4
2017-07-11T05:00:01.413Z,4
2017-07-11T05:00:27.006Z,4
2017-07-11T05:00:52.586Z,4
2017-07-11T05:01:18.169Z,4
2017-07-11T05:01:43.720Z,4
2017-07-11T05:02:09.306Z,4
2017-07-11T05:02:34.874Z,4
2017-07-11T05:03:00.455Z,4
2017-07-11T05:03:26.037Z,4
2017-07-11T05:03:51.595Z,4
2017-07-11T05:04:17.139Z,8
2017-07-11T05:04:42.705Z,8
2017-07-11T05:05:08.259Z,4
2017-07-11T05:05:33.828Z,4
2017-07-11T05:05:59.393Z,8
2017-07-11T05:06:24.952Z,8
2017-07-11T05:06:50.506Z,4
2017-07-11T05:07:16.086Z,8
2017-07-11T05:07:41.662Z,8
2017-07-11T05:08:07.216Z,8
2017-07-11T05:08:32.780Z,8
2017-07-11T05:08:58.320Z,8
2017-07-11T05:09:23.929Z,8
2017-07-11T05:09:49.523Z,12
2017-07-11T05:10:15.091Z,8
2017-07-11T05:10:40.646Z,8
2017-07-11T05:11:06.211Z,12
2017-07-11T05:11:31.773Z,12
2017-07-11T05:11:57.348Z,12
2017-07-11T05:12:22.920Z,12
2017-07-11T05:12:48.482Z,12
2017-07-11T05:13:14.064Z,12
2017-07-11T05:13:39.634Z,12
2017-07-11T05:14:05.230Z,12
2017-07-11T05:14:30.793Z,12
2017-07-11T05:14:56.500Z,16
2017-07-11T05:15:22.084Z,12
2017-07-11T05:15:47.634Z,16
2017-07-11T05:16:13.195Z,16
2017-07-11T05:16:38.771Z,16
2017-07-11T05:17:04.324Z,16
2017-07-11T05:17:30.002Z,20
2017-07-11T05:17:55.593Z,16
2017-07-11T05:18:21.153Z,16
2017-07-11T05:18:46.741Z,16
2017-07-11T05:19:12.300Z,16
2017-07-11T05:19:37.863Z,16
2017-07-11T05:20:03.473Z,16
2017-07-11T05:20:29.064Z,20
2017-07-11T05:20:54.626Z,20
2017-07-11T05:21:20.187Z,20
2017-07-11T05:21:45.747Z,20
2017-07-11T05:22:11.324Z,20
2017-07-11T05:22:36.902Z,16
2017-07-11T05:23:02.463Z,16
2017-07-11T05:23:28.040Z,16
2017-07-11T05:23:53.645Z,16
2017-07-11T05:24:19.216Z,16
2017-07-11T05:24:44.770Z,16
2017-07-11T05:25:10.325Z,16
2017-07-11T05:25:35.889Z,20
2017-07-11T05:26:01.440Z,16
2017-07-11T05:26:27.038Z,16
2017-07-11T05:26:52.624Z,16
2017-07-11T05:27:18.176Z,16
2017-07-11T05:27:43.814Z,16
2017-07-11T05:28:09.376Z,16
2017-07-11T05:28:34.955Z,16
2017-07-11T05:29:00.548Z,16
2017-07-11T05:29:26.192Z,16
2017-07-11T05:29:51.750Z,20
2017-07-11T05:30:17.338Z,16
2017-07-11T05:30:42.907Z,20
2017-07-11T05:31:08.479Z,20
2017-07-11T05:31:34.035Z,20
2017-07-11T05:31:59.598Z,20
2017-07-11T05:32:25.147Z,24
2017-07-11T05:32:50.737Z,20
2017-07-11T05:33:16.313Z,20
2017-07-11T05:33:41.891Z,20
2017-07-11T05:34:07.460Z,20
2017-07-11T05:34:33.027Z,20
2017-07-11T05:34:58.585Z,20
2017-07-11T05:35:24.139Z,20
2017-07-11T05:35:49.722Z,20
2017-07-11T05:36:15.280Z,20
2017-07-11T05:36:40.834Z,24
2017-07-11T05:37:06.393Z,24
2017-07-11T05:37:31.953Z,24
2017-07-11T05:37:57.624Z,24
2017-07-11T05:38:23.247Z,24
2017-07-11T05:38:48.811Z,28
2017-07-11T05:39:14.385Z,28
2017-07-11T05:39:39.936Z,32
2017-07-11T05:40:05.493Z,28
2017-07-11T05:40:31.069Z,32
2017-07-11T05:40:56.637Z,32
2017-07-11T05:41:22.217Z,32
2017-07-11T05:41:47.787Z,36
2017-07-11T05:42:13.349Z,36
2017-07-11T05:42:38.925Z,40
2017-07-11T05:43:04.481Z,40
2017-07-11T05:43:30.056Z,36
2017-07-11T05:43:55.614Z,40
2017-07-11T05:44:21.167Z,36
2017-07-11T05:44:46.737Z,36
2017-07-11T05:45:12.317Z,36
2017-07-11T05:45:37.865Z,40
2017-07-11T05:46:03.450Z,36
2017-07-11T05:46:29.005Z,40
2017-07-11T05:46:54.590Z,40
2017-07-11T05:47:20.129Z,44
2017-07-11T05:47:45.731Z,44
2017-07-11T05:48:11.407Z,48
2017-07-11T05:48:36.983Z,44
2017-07-11T05:49:02.538Z,48
2017-07-11T05:49:28.100Z,44
2017-07-11T05:49:53.674Z,48
2017-07-11T05:50:19.235Z,48
2017-07-11T05:50:44.946Z,48
2017-07-11T05:51:10.505Z,48
2017-07-11T05:51:36.078Z,44
2017-07-11T05:52:01.643Z,48
2017-07-11T05:52:27.195Z,48
2017-07-11T05:52:52.899Z,44
2017-07-11T05:53:18.457Z,44
2017-07-11T05:53:44.015Z,40
2017-07-11T05:54:09.588Z,44
2017-07-11T05:54:35.133Z,44
2017-07-11T05:55:00.729Z,40
2017-07-11T05:55:26.372Z,44
2017-07-11T05:55:51.946Z,40
2017-07-11T05:56:17.511Z,44
2017-07-11T05:56:43.073Z,44
2017-07-11T05:57:08.640Z,48
2017-07-11T05:57:34.203Z,44
2017-07-11T05:57:59.757Z,48
2017-07-11T05:58:25.302Z,48
2017-07-11T05:58:50.913Z,52
2017-07-11T05:59:16.528Z,52
2017-07-11T05:59:42.116Z,52
2017-07-11T06:00:07.681Z,52
2017-07-11T06:00:33.341Z,52
2017-07-11T06:00:58.914Z,52
2017-07-11T06:01:24.483Z,56
2017-07-11T06:01:50.041Z,56
2017-07-11T06:02:15.608Z,56
2017-07-11T06:02:41.154Z,56
2017-07-11T06:03:06.711Z,52
2017-07-11T06:03:32.252Z,56
2017-07-11T06:03:57.804Z,52
2017-07-11T06:04:23.364Z,52
2017-07-11T06:04:48.928Z,52
2017-07-11T06:05:14.480Z,52
2017-07-11T06:05:40.142Z,52
2017-07-11T06:06:05.725Z,52
2017-07-11T06:06:31.284Z,52
2017-07-11T06:06:56.900Z,56
2017-07-11T06:07:22.582Z,56
2017-07-11T06:07:48.142Z,52
2017-07-11T06:08:13.713Z,52
2017-07-11T06:08:39.278Z,56
2017-07-11T06:09:04.847Z,56
2017-07-11T06:09:30.414Z,56
2017-07-11T06:09:55.970Z,56
2017-07-11T06:10:21.527Z,56
2017-07-11T06:10:47.120Z,56
2017-07-11T06:11:12.695Z,52
2017-07-11T06:11:38.265Z,56
2017-07-11T06:12:03.847Z,56
2017-07-11T06:12:29.426Z,56
2017-07-11T06:12:55.026Z,56
2017-07-11T06:13:20.586Z,56
2017-07-11T06:13:46.205Z,52
2017-07-11T06:14:11.774Z,52
2017-07-11T06:14:37.337Z,56
2017-07-11T06:15:02.925Z,56
2017-07-11T06:15:28.578Z,56
2017-07-11T06:15:54.137Z,56
2017-07-11T06:16:19.700Z,56
2017-07-11T06:16:45.246Z,56
2017-07-11T06:17:10.805Z,56
2017-07-11T06:17:36.405Z,56
2017-07-11T06:18:02.051Z,52
2017-07-11T06:18:27.627Z,52
2017-07-11T06:18:53.191Z,52
2017-07-11T06:19:18.845Z,52
2017-07-11T06:19:44.424Z,52
2017-07-11T06:20:10.007Z,56
2017-07-11T06:20:35.562Z,60
2017-07-11T06:21:01.119Z,64
2017-07-11T06:21:26.680Z,64
2017-07-11T06:21:52.257Z,64